Latest Coastal Weather Observations for Bellambi

IDN60701

Issued at 7:02 pm EST Thursday 4 June 2020 (issued every 10 minutes, with the page automatically refreshed every 10 minutes)

About coastal observations | Map of coastal stations | Coastal observations for NSW | Marine services | Other Formats
Station Details ID: 068228 Name: BELLAMBI AWS Lat: -34.37 Lon: 150.93 Height: 10.0 m
Data from the previous 72 hours. | See also: Recent months at Bellambi
Date/Time
EST
Wind Sea
Height
m
Swell Vis
km
Cloud Weather Temp
°C
Press
hPa
Rain since
9am
mm
Dir  Spd
kts
Gust
kts
Height
m
Period
s
Dir
04/07:00pm WSW 6 7 - - - - - Clear - 11.0 - 0.0
04/06:30pm WSW 7 8 - - - - - - - 11.5 - 0.0
04/06:00pm WSW 6 9 - - - - - - - 12.2 - 0.0
04/05:30pm S 10 13 - - - - - - - 14.5 - 0.0
04/05:00pm S 11 14 - - - - - - - 14.7 - 0.0
04/04:30pm SSE 10 13 - - - - - - - 14.7 - 0.0
04/04:00pm SSE 11 14 - - - - - - - 15.1 - 0.0
04/03:30pm S 11 13 - - - - - - - 15.3 - 0.0
04/03:00pm SSE 10 13 - - - - - - - 15.6 - 0.0
04/02:30pm S 10 15 - - - - - - - 15.6 - 0.0
04/02:00pm S 8 11 - - - - - - - 15.8 - 0.0
04/01:30pm S 10 13 - - - - - Partly cloudy - 15.4 - 0.0
04/01:00pm SSW 9 12 - - - - - Cloudy - 15.5 - 0.0
04/12:30pm SSW 12 16 - - - - - Partly cloudy - 15.3 - 0.0
04/12:00pm SSW 11 14 - - - - - Cloudy - 15.3 - 0.0
04/11:30am SW 9 15 - - - - - Cloudy - 14.8 - 0.0
04/11:00am SSW 12 17 - - - - - Partly cloudy - 14.7 - 0.0
04/10:30am SSW 13 18 - - - - - Partly cloudy - 14.4 - 0.0
04/10:00am SSW 13 17 - - - - - - - 14.3 - 0.0
04/09:30am SW 13 18 - - - - - Partly cloudy - 13.5 - 0.0
04/09:00am SW 9 14 - - - - - Cloudy - 13.3 - 0.0
04/08:30am WSW 9 13 - - - - - Partly cloudy - 12.3 - 0.0
04/08:00am SW 9 12 - - - - - Partly cloudy - 11.5 - 0.0
04/07:30am SW 10 13 - - - - - Partly cloudy - 10.9 - 0.0
04/07:00am SW 9 11 - - - - - Partly cloudy - 10.5 - 0.0
04/06:30am SW 9 13 - - - - - Partly cloudy - 11.2 - 0.0
04/06:00am SW 9 11 - - - - - Partly cloudy - 11.2 - 0.0
04/05:30am SW 9 13 - - - - - Partly cloudy - 11.3 - 0.0
04/05:00am SW 8 11 - - - - - Partly cloudy - 11.3 - 0.0
04/04:30am SW 9 14 - - - - - Partly cloudy - 11.8 - 0.0
04/04:00am SW 9 13 - - - - - Partly cloudy - 11.8 - 0.0
04/03:30am SW 10 14 - - - - - Cloudy - 11.9 - 0.0
04/03:00am SW 10 15 - - - - - Cloudy - 11.8 - 0.0
04/02:30am SW 9 11 - - - - - Cloudy - 11.7 - 0.0
04/02:00am SW 9 12 - - - - - Partly cloudy - 11.6 - 0.0
04/01:30am SW 11 15 - - - - - Cloudy - 12.0 - 0.0
04/01:00am SW 10 15 - - - - - Cloudy - 11.9 - 0.0
04/12:30am SW 10 15 - - - - - Cloudy - 11.9 - 0.0
04/12:00am SW 11 14 - - - - - Partly cloudy - 11.8 - 0.0
 
Date/Time
EST
Wind Sea
Height
m
Swell Vis
km
Cloud Weather Temp
°C
Press
hPa
Rain since
9am
mm
Dir  Spd
kts
Gust
kts
Height
m
Period
s
Dir
03/11:30pm SW 10 13 - - - - - - - 11.6 - 0.0
03/11:00pm SW 10 16 - - - - - Partly cloudy - 11.8 - 0.0
03/10:30pm SW 11 15 - - - - - - - 12.4 - 0.0
03/10:00pm WSW 11 13 - - - - - - - 12.4 - 0.0
03/09:30pm SW 10 13 - - - - - Partly cloudy - 12.7 - 0.0
03/09:00pm WSW 10 14 - - - - - Partly cloudy - 12.9 - 0.0
03/08:30pm SW 9 13 - - - - - Partly cloudy - 12.9 - 0.0
03/08:00pm SW 9 13 - - - - - Partly cloudy - 12.9 - 0.0
03/07:30pm SW 9 12 - - - - - Cloudy - 13.2 - 0.0
03/07:00pm WSW 9 15 - - - - - Partly cloudy - 13.2 - 0.0
03/06:30pm SW 10 18 - - - - - Partly cloudy - 13.7 - 0.0
03/06:00pm WSW 8 10 - - - - - Mostly clear - 13.6 - 0.0
03/05:30pm SW 10 17 - - - - - - - 14.1 - 0.0
03/05:24pm SSW 14 19 - - - - - - - 14.4 - 0.0
03/05:00pm S 21 24 - - - - - Partly cloudy - 15.4 - 0.0
03/04:30pm S 19 22 - - - - - - - 15.7 - 0.0
03/04:00pm S 17 21 - - - - - - - 16.1 - 0.0
03/03:30pm S 18 21 - - - - - - - 16.3 - 0.0
03/03:00pm S 17 21 - - - - - - - 16.3 - 0.0
03/02:30pm S 20 25 - - - - - - - 16.5 - 0.0
03/02:00pm S 21 27 - - - - - Partly cloudy - 16.2 - 0.0
03/01:30pm S 21 27 - - - - - - - 16.5 - 0.0
03/01:00pm SSW 17 23 - - - - - - - 17.0 - 0.0
03/12:30pm SSW 18 25 - - - - - - - 16.8 - 0.0
03/12:01pm SSW 19 29 - - - - - - - 17.1 - 0.0
03/12:00pm SSW 18 24 - - - - - - - 17.1 - 0.0
03/11:30am SSW 18 25 - - - - - - - 17.1 - 0.0
03/11:00am SSW 19 24 - - - - - - - 16.9 - 0.0
03/10:30am SSW 18 26 - - - - - - - 17.0 - 0.0
03/10:00am SW 12 17 - - - - - - - 16.3 - 0.0
03/09:49am WSW 15 23 - - - - - - - 16.0 - 0.0
03/09:30am W 7 12 - - - - - - - 16.0 - 0.0
03/09:00am W 7 12 - - - - - - - 15.3 - 0.0
03/08:30am W 10 14 - - - - - - - 14.4 - 0.0
03/08:00am WSW 11 18 - - - - - - - 14.0 - 0.0
03/07:30am W 13 17 - - - - - - - 13.7 - 0.0
03/07:00am WSW 14 21 - - - - - - - 13.4 - 0.0
03/06:30am WSW 15 21 - - - - - - - 13.5 - 0.0
03/06:00am W 16 23 - - - - - - - 13.1 - 0.0
03/05:30am W 15 26 - - - - - - - 13.0 - 0.0
03/05:27am W 15 26 - - - - - - - 13.2 - 0.0
03/05:00am W 14 23 - - - - - - - 13.0 - 0.0
03/04:30am WSW 12 19 - - - - - - - 13.0 - 0.0
03/04:13am WSW 15 25 - - - - - - - 13.3 - 0.0
03/04:00am WSW 14 21 - - - - - - - 13.0 - 0.0
03/03:30am W 8 15 - - - - - - - 12.8 - 0.0
03/03:00am W 12 20 - - - - - - - 12.9 - 0.0
03/02:30am W 11 17 - - - - - - - 12.6 - 0.0
03/02:00am W 12 17 - - - - - - - 12.6 - 0.0
03/01:30am WSW 10 17 - - - - - - - 12.4 - 0.0
03/01:00am WSW 11 19 - - - - - - - 12.4 - 0.0
03/12:30am WSW 9 14 - - - - - - - 12.1 - 0.0
03/12:00am WSW 7 12 - - - - - - - 11.8 - 0.0
 
Date/Time
EST
Wind Sea
Height
m
Swell Vis
km
Cloud Weather Temp
°C
Press
hPa
Rain since
9am
mm
Dir  Spd
kts
Gust
kts
Height
m
Period
s
Dir
02/11:30pm W 13 20 - - - - - - - 11.9 - 0.0
02/11:00pm SW 13 20 - - - - - - - 11.7 - 0.0
02/10:30pm WSW 15 23 - - - - - - - 11.6 - 0.0
02/10:12pm W 15 25 - - - - - - - 11.6 - 0.0
02/10:00pm W 16 25 - - - - - - - 11.3 - 0.0
02/09:33pm W 15 25 - - - - - - - 11.2 - 0.0
02/09:30pm W 15 23 - - - - - - - 11.1 - 0.0
02/09:00pm W 14 23 - - - - - - - 11.0 - 0.0
02/08:30pm W 14 23 - - - - - - - 10.9 - 0.0
02/08:00pm WSW 13 24 - - - - - - - 10.6 - 0.0
02/07:30pm W 14 19 - - - - - - - 10.6 - 0.0
02/07:09pm W 16 26 - - - - - - - 10.8 - 0.0
02/07:00pm W 15 22 - - - - - - - 10.8 - 0.0
02/06:40pm W 15 27 - - - - - - - 11.0 - 0.0
02/06:30pm W 13 23 - - - - - - - 11.0 - 0.0
02/06:06pm W 15 25 - - - - - - - 11.4 - 0.0
02/06:00pm W 13 22 - - - - - - - 11.5 - 0.0
02/05:37pm W 15 25 - - - - - - - 12.0 - 0.0
02/05:30pm W 13 20 - - - - - - - 12.0 - 0.0
02/05:00pm W 9 13 - - - - - - - 12.7 - 0.0
02/04:30pm WSW 12 20 - - - - - Partly cloudy - 13.6 - 0.0
02/04:00pm WSW 10 14 - - - - - Partly cloudy - 14.0 - 0.0
02/03:30pm W 11 16 - - - - - - - 14.5 - 0.0
02/03:00pm WSW 10 16 - - - - - Mostly cloudy - 14.8 - 0.0
02/02:30pm SW 11 16 - - - - - Cloudy - 16.5 - 0.0
02/02:00pm SW 11 15 - - - - - Cloudy - 16.3 - 0.0
02/01:30pm SW 13 21 - - - - - Cloudy - 16.0 - 0.0
02/01:00pm SW 15 22 - - - - - Partly cloudy - 14.8 - 0.0
02/12:30pm SW 14 20 - - - - - Partly cloudy - 14.9 - 0.0
02/12:02pm SW 16 26 - - - - - Partly cloudy - 15.3 - 0.0
02/12:00pm SW 15 22 - - - - - Partly cloudy - 15.2 - 0.0
02/11:39am SW 15 26 - - - - - Partly cloudy - 14.8 - 0.0
02/11:30am SW 16 22 - - - - - Cloudy - 15.4 - 0.0
02/11:00am WSW 13 24 - - - - - Partly cloudy - 14.7 - 0.0
02/10:30am WSW 12 17 - - - - - Partly cloudy - 13.5 - 0.0
02/10:00am WSW 13 18 - - - - - Cloudy - 12.8 - 0.0
02/09:30am W 13 17 - - - - - Cloudy - 11.9 - 0.0
02/09:00am W 11 17 - - - - - Mostly cloudy - 11.6 - 1.4
02/08:30am W 13 18 - - - - - Cloudy - 10.5 - 1.4
02/08:00am W 11 16 - - - - - Cloudy - 9.8 - 1.4
02/07:30am W 10 15 - - - - - Partly cloudy - 8.7 - 1.4
02/07:00am W 10 16 - - - - - Cloudy - 8.3 - 1.2
02/06:30am WSW 12 18 - - - - - Partly cloudy - 9.0 - 0.4
02/06:00am WSW 10 17 - - - - - Cloudy - 10.8 - 0.0
02/05:30am WSW 13 20 - - - - - Partly cloudy - 10.6 - 0.0
02/05:00am WSW 13 19 - - - - - Partly cloudy - 10.4 - 0.0
02/04:30am W 9 16 - - - - - Partly cloudy - 9.7 - 0.0
02/04:00am W 12 17 - - - - - Partly cloudy - 9.8 - 0.0
02/03:30am W 16 24 - - - - - - - 9.5 - 0.0
02/03:00am W 15 26 - - - - - - - 9.3 - 0.0
02/02:30am W 16 29 - - - - - - - 9.6 - 0.0
02/02:00am WNW 17 28 - - - - - - - 9.7 - 0.0
02/01:30am WNW 19 31 - - - - - - - 10.1 - 0.0
02/01:00am WNW 18 30 - - - - - - - 10.4 - 0.0
02/12:30am WNW 21 37 - - - - - - - 10.6 - 0.0
02/12:25am WNW 20 37 - - - - - - - 10.6 - 0.0
02/12:05am W 15 27 - - - - - - - 10.4 - 0.0
02/12:00am W 13 27 - - - - - - - 10.4 - 0.0
 
Date/Time
EST
Wind Sea
Height
m
Swell Vis
km
Cloud Weather Temp
°C
Press
hPa
Rain since
9am
mm
Dir  Spd
kts
Gust
kts
Height
m
Period
s
Dir
01/11:30pm W 9 19 - - - - - - - 10.5 - 0.0
01/11:00pm W 6 14 - - - - - - - 10.6 - 0.0
01/10:30pm W 10 20 - - - - - - - 10.8 - 0.0
01/10:00pm WNW 9 14 - - - - - - - 10.7 - 0.0
01/09:30pm W 6 12 - - - - - - - 10.8 - 0.0
01/09:00pm W 12 18 - - - - - Mostly clear - 11.5 - 0.0
01/08:30pm W 12 21 - - - - - Cloudy - 11.9 - 0.0
01/08:00pm WNW 18 30 - - - - - - - 12.3 - 0.0
01/07:30pm WNW 18 40 - - - - - - - 12.8 - 0.0
01/07:07pm WNW 19 30 - - - - - Partly cloudy - 12.9 - 0.0

Other formats

Comma delimited format used in spreadsheet applications
http://www.bom.gov.au/fwo/IDN60701/IDN60701.94749.axf

JavaScript Object Notation format (JSON) in row-major order
http://www.bom.gov.au/fwo/IDN60701/IDN60701.94749.json

Data quality

Most of these data are generated automatically and are frequently updated. Quality checks on data are not normally performed. It is possible for incorrect values to appear. Refer to information at About Latest Weather Observations and please check the disclaimer before using these data.